Ogdensburg, New York
Current Conditions -  °F | °C
As of 9:53 PM on Saturday 22 Nov 2014 (Local Time) from KMSS Reporting Station
Light Rain Light Rain  
Wind Chill: 30°   Ceiling: 600
Heat Index: 38°   Visibility: 3mi
Dew Point: 38°   Wind: 13mph
Humidity: 100%   Direction: 220°SW
Pressure: 29.92"   Gusts: NA
Location:  44.69°N, 75.49°W
Report Text: KMSS 230253Z AUTO 22011KT 3SM -RA BR OVC006 03/03 A2992 RMK AO2 SLP137 P0000 60001 T00330033 53002
Loading
Personal Weather Stations






























Interactive Weather Map New forecast layout! Learn more

10-Day Weather Forecast

Advertisements
Track Severe Weather on mobile